This is the latest recevied weather packets stored in our database for station/object YC0TBU-4. If no packets are shown the sender has not sent any weather packets the latest 10 day(s).
| Time | Temp. | Humidity | Pressure | Rain* | Wind** | Luminosity | Snow |
|---|---|---|---|---|---|---|---|
| 1787865701 | 23.33° C | 47% | 1015.2 hPa | - | - | - | - |
| 1787863901 | 23.33° C | 48% | 1015.3 hPa | - | - | - | - |
| 1787862101 | 23.89° C | 47% | 1015.3 hPa | - | - | - | - |
| 1787860301 | 23.89° C | 46% | 1015.4 hPa | - | - | - | - |
| 1787858501 | 23.89° C | 46% | 1015.7 hPa | - | - | - | - |
| 1787856701 | 24.44° C | 46% | 1015.9 hPa | - | - | - | - |
| 1787854885 | 24.44° C | 46% | 1016.2 hPa | - | - | - | - |
| 1787853085 | 24.44° C | 46% | 1016.3 hPa | - | - | - | - |
| 1787851285 | 25° C | 46% | 1016.6 hPa | - | - | - | - |
| 1787849485 | 24.44° C | 47% | 1016.8 hPa | - | - | - | - |
| 1787847685 | 23.89° C | 50% | 1017.1 hPa | - | - | - | - |
| 1787845885 | 24.44° C | 49% | 1017.1 hPa | - | - | - | - |
| 1787844069 | 25° C | 47% | 1017.1 hPa | - | - | - | - |
| 1787842269 | 24.44° C | 48% | 1017.1 hPa | - | - | - | - |
| 1787840469 | 24.44° C | 48% | 1016.9 hPa | - | - | - | - |
| 1787838669 | 25° C | 47% | 1016.5 hPa | - | - | - | - |
| 1787836869 | 25° C | 48% | 1016.3 hPa | - | - | - | - |
| 1787835069 | 25° C | 48% | 1015.7 hPa | - | - | - | - |
| 1787833269 | 25.56° C | 45% | 1015.2 hPa | - | - | - | - |
| 1787831468 | 26.67° C | 44% | 1015 hPa | - | - | - | - |
| 1787829668 | 27.78° C | 41% | 1014.6 hPa | - | - | - | - |
| 1787827868 | 26.67° C | 42% | 1014.3 hPa | - | - | - | - |
| 1787826068 | 29.44° C | 39% | 1013.6 hPa | - | - | - | - |
| 1787824268 | 29.44° C | 39% | 1013 hPa | - | - | - | - |
| 1787822468 | 29.44° C | 40% | 1012.3 hPa | - | - | - | - |
* Rain since midnight (hover to see other rain measurements)
** Current wind speed in m/s (hover to see current wind gust speed)